New Bern, North Carolina
Current Conditions -  °F | °C
As of 8:54 AM on Wednesday 22 Oct 2014 (Local Time) from KEWN Reporting Station
Clear Clear  
Wind Chill: 56°   Ceiling: Unl
Heat Index: 56°   Visibility: 10mi
Dew Point: 46°   Wind: 7mph
Humidity: 69%   Direction: 280°W
Pressure: 29.94"   Gusts: NA
Location:  35.11°N, 77.04°W
Report Text: KEWN 221254Z 28006KT 10SM CLR 13/08 A2994 RMK AO2 SLP139 T01330078
Loading
Personal Weather Stations






























Interactive Weather Map
Tropical Storm Tracking
New forecast layout! Learn more

10-Day Weather Forecast

Advertisements
Track Severe Weather on mobile